createdAt,value
2023-03-20T00:00:20.785Z,4.30
2023-03-20T00:02:50.587Z,4.70
2023-03-20T00:05:25.677Z,4.87
2023-03-20T00:07:55.720Z,4.83
2023-03-20T00:10:29.942Z,4.73
2023-03-20T00:13:00.416Z,4.50
2023-03-20T00:15:34.474Z,4.60
2023-03-20T00:18:04.408Z,4.50
2023-03-20T00:20:37.021Z,4.43
2023-03-20T00:23:07.065Z,4.57
2023-03-20T00:25:37.156Z,4.20
2023-03-20T00:28:15.204Z,4.37
2023-03-20T00:30:46.531Z,4.10
2023-03-20T00:33:17.166Z,3.93
2023-03-20T00:35:49.757Z,4.10
2023-03-20T00:38:19.511Z,4.63
2023-03-20T00:40:49.280Z,4.50
2023-03-20T00:43:19.098Z,4.27
2023-03-20T00:45:49.557Z,4.10
2023-03-20T00:48:20.931Z,4.37
2023-03-20T00:50:53.667Z,4.00
2023-03-20T00:53:23.411Z,4.50
2023-03-20T00:55:53.205Z,3.93
2023-03-20T00:58:23.821Z,4.23
2023-03-20T01:00:53.789Z,4.00
2023-03-20T01:03:25.363Z,3.90
2023-03-20T01:05:57.710Z,4.07
2023-03-20T01:08:31.018Z,3.63
2023-03-20T01:11:01.539Z,3.63
2023-03-20T01:13:33.179Z,3.77
2023-03-20T01:16:02.979Z,3.67
2023-03-20T01:18:38.203Z,3.50
2023-03-20T01:21:12.349Z,3.83
2023-03-20T01:23:42.167Z,3.10
2023-03-20T01:26:24.763Z,3.60
2023-03-20T01:28:54.788Z,3.33
2023-03-20T01:31:24.670Z,3.50
2023-03-20T01:33:54.603Z,3.90
2023-03-20T01:36:27.398Z,3.90
2023-03-20T01:38:59.896Z,3.53
2023-03-20T01:41:30.655Z,3.93
2023-03-20T01:44:01.477Z,3.87
2023-03-20T01:46:33.541Z,3.70
2023-03-20T01:49:10.896Z,3.27
2023-03-20T01:51:43.247Z,3.67
2023-03-20T01:54:18.573Z,3.30
2023-03-20T01:56:53.016Z,3.70
2023-03-20T01:59:25.368Z,4.30
2023-03-20T02:01:57.863Z,4.30
2023-03-20T02:04:32.617Z,4.70
2023-03-20T02:07:06.506Z,4.00
2023-03-20T02:09:36.331Z,4.30
2023-03-20T02:12:07.804Z,4.50
2023-03-20T02:14:39.124Z,5.47
2023-03-20T02:17:11.736Z,4.40
2023-03-20T02:19:51.755Z,4.90
2023-03-20T02:22:44.587Z,5.37
2023-03-20T02:25:47.833Z,4.37
2023-03-20T02:28:50.285Z,4.80
2023-03-20T02:31:58.389Z,4.93
2023-03-20T02:34:59.831Z,4.53
2023-03-20T02:38:06.538Z,4.90
2023-03-20T02:40:46.089Z,4.93
2023-03-20T02:43:24.421Z,4.80
2023-03-20T02:46:00.624Z,5.07
2023-03-20T02:48:41.517Z,5.83
2023-03-20T02:51:19.037Z,5.83
2023-03-20T02:53:56.687Z,5.77
2023-03-20T02:56:35.096Z,6.10
2023-03-20T02:59:17.625Z,5.20
2023-03-20T03:01:54.921Z,5.77
2023-03-20T03:04:29.108Z,5.40
2023-03-20T03:07:00.439Z,6.00
2023-03-20T03:09:34.226Z,6.10
2023-03-20T03:12:13.265Z,6.13
2023-03-20T03:14:46.722Z,6.00
2023-03-20T03:17:18.057Z,5.83
2023-03-20T03:19:52.624Z,5.87
2023-03-20T03:22:24.497Z,5.93
2023-03-20T03:24:56.096Z,5.50
2023-03-20T03:27:32.457Z,5.50
2023-03-20T03:30:04.985Z,5.73
2023-03-20T03:32:40.740Z,6.07
2023-03-20T03:35:17.987Z,6.00
2023-03-20T03:37:57.239Z,6.23
2023-03-20T03:40:37.210Z,5.97
2023-03-20T03:43:15.553Z,5.53
2023-03-20T03:45:51.183Z,5.70
2023-03-20T03:48:24.170Z,5.63
2023-03-20T03:50:59.495Z,6.03
2023-03-20T03:53:37.122Z,6.10
2023-03-20T03:56:11.659Z,5.73
2023-03-20T03:58:47.687Z,6.23
2023-03-20T04:01:20.051Z,5.77
2023-03-20T04:03:54.040Z,6.07
2023-03-20T04:06:24.109Z,6.60
2023-03-20T04:08:53.878Z,5.77
2023-03-20T04:11:25.742Z,6.90
2023-03-20T04:13:58.732Z,5.87
2023-03-20T04:16:29.190Z,6.70
2023-03-20T04:18:58.996Z,5.73
2023-03-20T04:21:28.852Z,6.40
2023-03-20T04:23:58.616Z,6.00
2023-03-20T04:26:28.395Z,6.30
2023-03-20T04:29:01.614Z,6.70
2023-03-20T04:31:31.467Z,6.27
2023-03-20T04:34:02.362Z,6.63
2023-03-20T04:36:34.215Z,6.53
2023-03-20T04:39:03.966Z,6.27
2023-03-20T04:41:33.763Z,7.23
2023-03-20T04:44:06.348Z,6.67
2023-03-20T04:46:36.236Z,5.60
2023-03-20T04:49:06.011Z,6.67
2023-03-20T04:51:35.761Z,6.70
2023-03-20T04:54:05.542Z,6.30
2023-03-20T04:56:35.285Z,6.93
2023-03-20T04:59:07.679Z,6.63
2023-03-20T05:01:37.499Z,6.87
2023-03-20T05:04:07.540Z,7.17
2023-03-20T05:06:38.568Z,7.07
2023-03-20T05:09:09.351Z,8.00
2023-03-20T05:11:39.133Z,8.50
2023-03-20T05:14:12.191Z,7.90
2023-03-20T05:16:42.303Z,8.07
2023-03-20T05:19:13.664Z,8.23
2023-03-20T05:21:43.404Z,9.10
2023-03-20T05:24:13.154Z,8.93
2023-03-20T05:26:42.938Z,9.43
2023-03-20T05:29:15.619Z,9.10
2023-03-20T05:31:45.532Z,9.37
2023-03-20T05:34:15.568Z,9.47
2023-03-20T05:36:45.710Z,9.57
2023-03-20T05:39:15.480Z,9.23
2023-03-20T05:41:45.936Z,9.20
2023-03-20T05:44:22.292Z,9.30
2023-03-20T05:46:52.037Z,10.00
2023-03-20T05:49:21.777Z,10.30
2023-03-20T05:51:51.658Z,9.93
2023-03-20T05:54:29.327Z,10.57
2023-03-20T05:57:02.170Z,10.77
2023-03-20T05:59:40.048Z,10.87
2023-03-20T06:02:10.275Z,10.80
2023-03-20T06:04:40.412Z,11.13
2023-03-20T06:07:10.572Z,10.17
2023-03-20T06:09:40.577Z,10.73
2023-03-20T06:12:10.995Z,10.77
2023-03-20T06:14:43.363Z,11.40
2023-03-20T06:17:13.285Z,11.53
2023-03-20T06:19:43.079Z,10.80
2023-03-20T06:22:12.908Z,10.97
2023-03-20T06:24:43.402Z,11.80
2023-03-20T06:27:13.208Z,10.83
2023-03-20T06:29:49.372Z,10.47
2023-03-20T06:32:19.377Z,10.00
2023-03-20T06:34:49.216Z,10.67
2023-03-20T06:37:18.966Z,10.03
2023-03-20T06:39:54.716Z,10.13
2023-03-20T06:42:24.526Z,11.47
2023-03-20T06:44:56.875Z,10.37
2023-03-20T06:47:27.233Z,11.13
2023-03-20T06:49:57.777Z,11.27
2023-03-20T06:52:27.592Z,11.87
2023-03-20T06:54:58.031Z,10.90
2023-03-20T06:57:29.387Z,11.80
2023-03-20T07:00:01.880Z,12.73
2023-03-20T07:02:32.052Z,11.10
2023-03-20T07:05:01.922Z,11.23
2023-03-20T07:07:31.838Z,11.70
2023-03-20T07:10:01.726Z,10.03
2023-03-20T07:12:31.559Z,11.27
2023-03-20T07:15:03.910Z,11.53
2023-03-20T07:17:33.666Z,11.97
2023-03-20T07:20:03.453Z,12.10
2023-03-20T07:22:36.600Z,11.57
2023-03-20T07:25:07.031Z,11.50
2023-03-20T07:27:36.800Z,11.97
2023-03-20T07:30:10.556Z,11.57
2023-03-20T07:32:40.981Z,11.40
2023-03-20T07:35:12.286Z,12.27
2023-03-20T07:37:42.143Z,11.87
2023-03-20T07:40:15.760Z,12.43
2023-03-20T07:42:48.659Z,11.33
2023-03-20T07:45:21.478Z,11.47
2023-03-20T07:47:51.318Z,11.77
2023-03-20T07:50:21.363Z,12.47
2023-03-20T07:52:51.421Z,11.70
2023-03-20T07:55:21.228Z,11.33
2023-03-20T07:57:54.167Z,12.53
2023-03-20T08:00:28.226Z,12.63
2023-03-20T08:02:59.535Z,13.47
2023-03-20T08:05:29.583Z,12.60
2023-03-20T08:07:59.558Z,12.77
2023-03-20T08:10:29.548Z,13.53
2023-03-20T08:12:59.323Z,13.53
2023-03-20T08:15:31.827Z,12.63
2023-03-20T08:18:01.675Z,12.93
2023-03-20T08:20:31.885Z,12.97
2023-03-20T08:23:01.674Z,12.80
2023-03-20T08:25:33.873Z,12.03
2023-03-20T08:28:04.192Z,12.60
2023-03-20T08:30:37.365Z,12.87
2023-03-20T08:33:08.062Z,13.07
2023-03-20T08:35:38.437Z,24.40
2023-03-20T08:38:08.431Z,13.20
2023-03-20T08:40:38.604Z,12.77
2023-03-20T08:43:08.435Z,12.43
2023-03-20T08:45:45.564Z,12.47
2023-03-20T08:48:16.501Z,12.30
2023-03-20T08:50:46.483Z,12.57
2023-03-20T08:53:16.280Z,12.00
2023-03-20T08:55:51.829Z,11.77
2023-03-20T08:58:29.320Z,12.47
2023-03-20T09:01:07.145Z,11.80
2023-03-20T09:03:37.350Z,11.47
2023-03-20T09:06:09.703Z,11.80
2023-03-20T09:08:39.630Z,11.13
2023-03-20T09:11:10.096Z,10.70
2023-03-20T09:13:39.891Z,11.47
2023-03-20T09:16:15.013Z,10.57
2023-03-20T09:18:46.563Z,10.50
2023-03-20T09:21:16.595Z,11.13
2023-03-20T09:23:47.555Z,10.47
2023-03-20T09:26:17.371Z,10.83
2023-03-20T09:28:47.147Z,9.90
2023-03-20T09:31:19.757Z,10.10
2023-03-20T09:33:49.511Z,10.10
2023-03-20T09:36:19.842Z,10.37
2023-03-20T09:38:50.996Z,9.80
2023-03-20T09:41:27.937Z,10.10
2023-03-20T09:44:11.914Z,9.90
2023-03-20T09:47:18.882Z,9.43
2023-03-20T09:50:02.026Z,9.60
2023-03-20T09:52:35.356Z,9.67
2023-03-20T09:55:09.603Z,10.07
2023-03-20T09:57:43.982Z,9.57
2023-03-20T10:00:19.652Z,9.57
2023-03-20T10:03:00.473Z,9.20
2023-03-20T10:05:32.611Z,9.10
2023-03-20T10:08:05.767Z,9.50
2023-03-20T10:10:45.154Z,9.60
2023-03-20T10:13:38.627Z,10.63
2023-03-20T10:16:17.883Z,9.30
2023-03-20T10:18:54.346Z,9.67
2023-03-20T10:21:36.854Z,10.67
2023-03-20T10:24:10.036Z,10.00
2023-03-20T10:26:41.671Z,9.90
2023-03-20T10:29:30.681Z,10.97
2023-03-20T10:32:09.084Z,10.07
2023-03-20T10:34:56.623Z,9.10
2023-03-20T10:37:42.808Z,10.30
2023-03-20T10:40:29.463Z,10.63
2023-03-20T10:43:03.307Z,10.37
2023-03-20T10:45:39.388Z,10.37
2023-03-20T10:48:18.840Z,10.50
2023-03-20T10:50:54.808Z,10.90
2023-03-20T10:53:35.301Z,11.07
2023-03-20T10:56:11.586Z,10.13
2023-03-20T10:58:44.499Z,9.80
2023-03-20T11:01:14.431Z,10.83
2023-03-20T11:03:44.421Z,10.57
2023-03-20T11:06:22.405Z,10.67
2023-03-20T11:08:54.990Z,10.03
2023-03-20T11:11:26.680Z,10.50
2023-03-20T11:13:57.230Z,10.33
2023-03-20T11:16:29.246Z,10.57
2023-03-20T11:18:59.015Z,9.77
2023-03-20T11:21:34.536Z,10.10
2023-03-20T11:24:04.861Z,10.50
2023-03-20T11:26:45.190Z,9.87
2023-03-20T11:29:26.901Z,8.63
2023-03-20T11:31:56.913Z,7.97
2023-03-20T11:34:28.829Z,6.40
2023-03-20T11:37:10.147Z,6.27
2023-03-20T11:39:42.300Z,6.63
2023-03-20T11:42:26.735Z,6.33
2023-03-20T11:45:01.436Z,6.40
2023-03-20T11:47:37.724Z,6.20
2023-03-20T11:50:09.396Z,5.93
2023-03-20T11:52:43.121Z,5.77
2023-03-20T11:55:27.953Z,5.80
2023-03-20T11:58:01.136Z,6.53
2023-03-20T12:00:39.033Z,6.40
2023-03-20T12:03:42.284Z,7.80
2023-03-20T12:06:18.291Z,8.23
2023-03-20T12:08:55.330Z,8.50
2023-03-20T12:11:41.476Z,9.60
2023-03-20T12:14:20.212Z,9.30
2023-03-20T12:16:52.762Z,9.20
2023-03-20T12:19:29.376Z,9.40
2023-03-20T12:22:06.246Z,8.50
2023-03-20T12:24:44.774Z,8.77
2023-03-20T12:27:24.109Z,9.20
2023-03-20T12:30:01.191Z,9.17
2023-03-20T12:32:36.385Z,9.77
2023-03-20T12:35:16.056Z,9.37
2023-03-20T12:37:46.592Z,9.53
2023-03-20T12:40:23.263Z,9.33
2023-03-20T12:43:05.271Z,8.77
2023-03-20T12:45:44.130Z,9.20
2023-03-20T12:48:34.314Z,9.43
2023-03-20T12:51:09.994Z,9.07
2023-03-20T12:53:52.372Z,8.40
2023-03-20T12:56:39.354Z,8.20
2023-03-20T12:59:24.876Z,8.17
2023-03-20T13:01:59.526Z,9.40
2023-03-20T13:04:52.898Z,9.17
2023-03-20T13:07:24.445Z,8.90
2023-03-20T13:10:18.155Z,9.23
2023-03-20T13:13:03.069Z,9.70
2023-03-20T13:15:44.081Z,9.80
2023-03-20T13:18:23.744Z,9.40
2023-03-20T13:20:55.428Z,9.67
2023-03-20T13:23:33.755Z,9.33
2023-03-20T13:26:28.639Z,9.37
2023-03-20T13:29:08.813Z,9.23
2023-03-20T13:32:00.775Z,9.30
2023-03-20T13:34:38.682Z,9.43
2023-03-20T13:37:23.925Z,9.03
2023-03-20T13:40:06.122Z,8.87
2023-03-20T13:42:43.944Z,9.83
2023-03-20T13:45:31.930Z,10.57
2023-03-20T13:48:06.291Z,9.60
2023-03-20T13:50:45.496Z,10.27
2023-03-20T13:53:32.801Z,10.00
2023-03-20T13:56:11.498Z,10.03
2023-03-20T13:59:01.266Z,11.03
2023-03-20T14:01:44.052Z,9.67
2023-03-20T14:04:19.025Z,9.17
2023-03-20T14:06:55.810Z,9.00
2023-03-20T14:09:32.339Z,8.73
2023-03-20T14:12:05.707Z,8.73
2023-03-20T14:14:43.317Z,9.23
2023-03-20T14:17:23.293Z,8.30
2023-03-20T14:19:54.406Z,8.60
2023-03-20T14:22:27.759Z,8.90
2023-03-20T14:25:00.895Z,7.70
2023-03-20T14:27:43.671Z,7.87
2023-03-20T14:30:45.994Z,8.23
2023-03-20T14:33:34.390Z,8.03
2023-03-20T14:36:44.449Z,8.67
2023-03-20T14:39:22.690Z,8.20
2023-03-20T14:42:03.304Z,8.53
2023-03-20T14:44:49.312Z,8.57
2023-03-20T14:47:28.633Z,8.33
2023-03-20T14:50:11.662Z,8.10
2023-03-20T14:52:55.917Z,8.20
2023-03-20T14:55:34.708Z,8.40
2023-03-20T14:58:29.713Z,8.60
2023-03-20T15:01:06.213Z,8.87
2023-03-20T15:03:37.854Z,8.77
2023-03-20T15:06:12.186Z,8.43
2023-03-20T15:08:48.611Z,9.30
2023-03-20T15:11:18.869Z,8.53
2023-03-20T15:13:50.822Z,8.63
2023-03-20T15:16:20.668Z,8.53
2023-03-20T15:18:54.698Z,7.97
2023-03-20T15:21:35.340Z,8.07
2023-03-20T15:24:05.393Z,7.83
2023-03-20T15:26:36.801Z,9.30
2023-03-20T15:29:09.769Z,8.37
2023-03-20T15:31:42.136Z,7.70
2023-03-20T15:34:17.791Z,8.97
2023-03-20T15:36:50.931Z,8.40
2023-03-20T15:39:22.856Z,8.83
2023-03-20T15:41:56.156Z,8.57
2023-03-20T15:44:27.469Z,8.40
2023-03-20T15:47:02.487Z,8.50
2023-03-20T15:49:35.249Z,8.47
2023-03-20T15:52:16.909Z,8.37
2023-03-20T15:54:46.844Z,7.97
2023-03-20T15:57:25.593Z,8.33
2023-03-20T15:59:56.499Z,8.23
2023-03-20T16:02:29.595Z,7.90
2023-03-20T16:04:59.457Z,7.77
2023-03-20T16:07:33.912Z,8.27
2023-03-20T16:10:04.004Z,7.40
2023-03-20T16:12:33.833Z,7.27
2023-03-20T16:15:05.038Z,7.43
2023-03-20T16:17:36.563Z,7.63
2023-03-20T16:20:06.745Z,7.70
2023-03-20T16:22:39.934Z,7.37
2023-03-20T16:25:17.014Z,7.77
2023-03-20T16:27:52.078Z,7.13
2023-03-20T16:30:25.607Z,7.13
2023-03-20T16:33:03.152Z,7.40
2023-03-20T16:35:39.952Z,8.23
2023-03-20T16:38:27.824Z,7.10
2023-03-20T16:40:58.698Z,6.77
2023-03-20T16:43:30.791Z,7.17
2023-03-20T16:46:07.300Z,7.10
2023-03-20T16:48:39.777Z,6.70
2023-03-20T16:51:19.527Z,6.83
2023-03-20T16:53:54.419Z,6.70
2023-03-20T16:56:28.838Z,6.70
2023-03-20T16:59:02.281Z,6.50
2023-03-20T17:01:33.298Z,6.90
2023-03-20T17:04:17.594Z,7.20
2023-03-20T17:06:51.298Z,6.73
2023-03-20T17:09:27.170Z,7.37
2023-03-20T17:12:04.090Z,6.70
2023-03-20T17:14:34.867Z,6.80
2023-03-20T17:17:04.930Z,7.53
2023-03-20T17:19:35.784Z,7.17
2023-03-20T17:22:06.693Z,7.00
2023-03-20T17:24:39.073Z,6.60
2023-03-20T17:27:08.923Z,7.20
2023-03-20T17:29:38.719Z,6.97
2023-03-20T17:32:12.924Z,7.43
2023-03-20T17:34:43.050Z,6.83
2023-03-20T17:37:18.641Z,6.90
2023-03-20T17:39:51.024Z,6.73
2023-03-20T17:42:22.444Z,6.53
2023-03-20T17:44:52.202Z,6.90
2023-03-20T17:47:24.349Z,6.60
2023-03-20T17:49:54.999Z,5.73
2023-03-20T17:52:26.087Z,6.27
2023-03-20T17:54:58.488Z,6.13
2023-03-20T17:57:37.220Z,6.17
2023-03-20T18:00:08.916Z,7.00
2023-03-20T18:02:44.039Z,6.70
2023-03-20T18:05:13.907Z,6.73
2023-03-20T18:07:44.430Z,7.10
2023-03-20T18:10:23.881Z,7.87
2023-03-20T18:12:56.651Z,6.80
2023-03-20T18:15:26.468Z,6.73
2023-03-20T18:17:56.265Z,7.37
2023-03-20T18:20:29.888Z,7.50
2023-03-20T18:22:59.723Z,6.67
2023-03-20T18:25:33.691Z,6.77
2023-03-20T18:28:05.114Z,6.80
2023-03-20T18:30:38.125Z,7.63
2023-03-20T18:33:08.870Z,7.47
2023-03-20T18:35:39.229Z,7.97
2023-03-20T18:38:09.175Z,8.10
2023-03-20T18:40:42.718Z,8.37
2023-03-20T18:43:13.156Z,8.00
2023-03-20T18:45:42.963Z,9.00
2023-03-20T18:48:15.214Z,8.43
2023-03-20T18:50:45.132Z,8.33
2023-03-20T18:53:14.908Z,8.70
2023-03-20T18:55:47.390Z,8.53
2023-03-20T18:58:24.572Z,8.83
2023-03-20T19:00:55.157Z,9.10
2023-03-20T19:03:28.702Z,9.33
2023-03-20T19:06:01.158Z,10.43
2023-03-20T19:08:35.708Z,9.83
2023-03-20T19:11:14.931Z,9.83
2023-03-20T19:13:47.437Z,9.07
2023-03-20T19:16:24.615Z,9.47
2023-03-20T19:18:55.071Z,10.27
2023-03-20T19:21:26.554Z,9.77
2023-03-20T19:23:57.062Z,9.80
2023-03-20T19:26:30.801Z,9.70
2023-03-20T19:29:03.049Z,10.30
2023-03-20T19:31:32.869Z,10.90
2023-03-20T19:34:03.169Z,10.53
2023-03-20T19:36:34.618Z,10.63
2023-03-20T19:39:06.728Z,10.10
2023-03-20T19:41:39.263Z,10.67
2023-03-20T19:44:09.096Z,11.10
2023-03-20T19:46:41.168Z,11.00
2023-03-20T19:49:20.040Z,10.00
2023-03-20T19:51:50.891Z,9.33
2023-03-20T19:54:20.793Z,10.20
2023-03-20T19:56:53.152Z,10.07
2023-03-20T19:59:25.918Z,9.87
2023-03-20T20:01:55.933Z,9.57
2023-03-20T20:04:25.915Z,10.10
2023-03-20T20:07:19.514Z,8.40
2023-03-20T20:09:45.754Z,9.40
2023-03-20T20:12:18.185Z,9.43
2023-03-20T20:14:48.031Z,10.97
2023-03-20T20:17:17.790Z,10.77
2023-03-20T20:19:47.547Z,9.63
2023-03-20T20:22:25.388Z,9.20
2023-03-20T20:24:56.192Z,9.97
2023-03-20T20:27:29.281Z,8.80
2023-03-20T20:29:59.097Z,9.27
2023-03-20T20:32:31.054Z,9.70
2023-03-20T20:38:33.482Z,10.53
2023-03-20T20:40:44.311Z,9.23
2023-03-20T20:43:39.057Z,9.40
2023-03-20T20:46:06.639Z,8.93
2023-03-20T20:48:37.740Z,9.37
2023-03-20T20:51:07.880Z,10.10
2023-03-20T20:53:37.644Z,10.13
2023-03-20T20:56:09.803Z,9.73
2023-03-20T20:58:44.200Z,10.13
2023-03-20T21:01:13.992Z,11.00
2023-03-20T21:03:43.796Z,9.83
2023-03-20T21:06:13.586Z,10.83
2023-03-20T21:08:45.616Z,10.70
2023-03-20T21:11:15.892Z,10.93
2023-03-20T21:13:48.411Z,10.93
2023-03-20T21:16:18.231Z,11.37
2023-03-20T21:18:48.144Z,10.83
2023-03-20T21:21:18.610Z,11.50
2023-03-20T21:23:48.577Z,12.30
2023-03-20T21:26:18.755Z,12.90
2023-03-20T21:28:51.565Z,11.90
2023-03-20T21:31:31.193Z,13.50
2023-03-20T21:34:01.337Z,11.53
2023-03-20T21:36:31.767Z,11.97
2023-03-20T21:39:08.264Z,11.77
2023-03-20T21:41:38.730Z,13.50
2023-03-20T21:44:17.147Z,13.60
2023-03-20T21:58:50.734Z,13.47
2023-03-20T22:01:42.025Z,12.93
2023-03-20T22:16:10.811Z,13.03
2023-03-20T22:46:45.244Z,12.70
2023-03-20T22:49:15.918Z,13.97
2023-03-20T22:52:05.085Z,13.57
2023-03-20T22:54:38.314Z,12.73
2023-03-20T22:57:08.080Z,14.60
2023-03-20T22:59:41.032Z,14.37
2023-03-20T23:02:13.886Z,13.53
2023-03-20T23:04:43.875Z,14.67
2023-03-20T23:07:16.248Z,14.60
2023-03-20T23:09:45.994Z,14.03
2023-03-20T23:12:15.774Z,13.60
2023-03-20T23:14:46.418Z,13.63
2023-03-20T23:17:16.609Z,15.10
2023-03-20T23:19:50.482Z,13.33
2023-03-20T23:22:26.745Z,13.97
2023-03-20T23:24:59.857Z,13.87
2023-03-20T23:27:32.667Z,12.70
2023-03-20T23:30:02.404Z,12.87
2023-03-20T23:32:32.164Z,12.80
2023-03-20T23:35:03.114Z,13.47
2023-03-20T23:37:35.583Z,13.50
2023-03-20T23:40:06.100Z,13.03
2023-03-20T23:42:36.031Z,12.83
2023-03-20T23:45:19.676Z,14.07
2023-03-20T23:47:51.099Z,13.50
2023-03-20T23:50:42.619Z,15.10
2023-03-20T23:53:20.689Z,13.63
2023-03-20T23:55:51.778Z,13.60
2023-03-20T23:58:22.704Z,17.17
